sensor_id;sensor_type;location;lat;lon;timestamp;P1;durP1;ratioP1;P2;durP2;ratioP2
15043;SDS011;7619;48.562;8.910;2023-05-18T00:00:20;7.77;;;4.70;;
15043;SDS011;7619;48.562;8.910;2023-05-18T00:02:51;8.20;;;4.40;;
15043;SDS011;7619;48.562;8.910;2023-05-18T00:05:19;6.60;;;5.00;;
15043;SDS011;7619;48.562;8.910;2023-05-18T00:07:47;6.60;;;4.23;;
15043;SDS011;7619;48.562;8.910;2023-05-18T00:10:15;6.83;;;4.90;;
15043;SDS011;7619;48.562;8.910;2023-05-18T00:12:43;7.80;;;5.37;;
15043;SDS011;7619;48.562;8.910;2023-05-18T00:15:12;9.33;;;5.93;;
15043;SDS011;7619;48.562;8.910;2023-05-18T00:17:40;11.80;;;5.53;;
15043;SDS011;7619;48.562;8.910;2023-05-18T00:20:09;6.23;;;4.87;;
15043;SDS011;7619;48.562;8.910;2023-05-18T00:22:37;9.33;;;5.30;;
15043;SDS011;7619;48.562;8.910;2023-05-18T00:25:07;5.63;;;4.77;;
15043;SDS011;7619;48.562;8.910;2023-05-18T00:27:35;8.13;;;5.53;;
15043;SDS011;7619;48.562;8.910;2023-05-18T00:30:04;7.60;;;4.80;;
15043;SDS011;7619;48.562;8.910;2023-05-18T00:32:32;6.70;;;4.77;;
15043;SDS011;7619;48.562;8.910;2023-05-18T00:35:00;9.80;;;5.47;;
15043;SDS011;7619;48.562;8.910;2023-05-18T00:37:28;7.80;;;5.30;;
15043;SDS011;7619;48.562;8.910;2023-05-18T00:39:57;5.90;;;4.43;;
15043;SDS011;7619;48.562;8.910;2023-05-18T00:42:25;7.20;;;4.80;;
15043;SDS011;7619;48.562;8.910;2023-05-18T00:44:53;7.40;;;5.00;;
15043;SDS011;7619;48.562;8.910;2023-05-18T00:47:21;7.10;;;4.73;;
15043;SDS011;7619;48.562;8.910;2023-05-18T00:49:49;9.20;;;5.13;;
15043;SDS011;7619;48.562;8.910;2023-05-18T00:52:18;9.63;;;4.50;;
15043;SDS011;7619;48.562;8.910;2023-05-18T00:54:47;8.53;;;5.43;;
15043;SDS011;7619;48.562;8.910;2023-05-18T00:57:16;8.87;;;5.03;;
15043;SDS011;7619;48.562;8.910;2023-05-18T00:59:45;5.83;;;4.30;;
15043;SDS011;7619;48.562;8.910;2023-05-18T01:02:14;6.67;;;4.83;;
15043;SDS011;7619;48.562;8.910;2023-05-18T01:04:42;5.77;;;4.13;;
15043;SDS011;7619;48.562;8.910;2023-05-18T01:07:10;7.23;;;4.93;;
15043;SDS011;7619;48.562;8.910;2023-05-18T01:09:40;6.37;;;4.40;;
15043;SDS011;7619;48.562;8.910;2023-05-18T01:12:11;7.80;;;4.40;;
15043;SDS011;7619;48.562;8.910;2023-05-18T01:14:42;8.20;;;4.60;;
15043;SDS011;7619;48.562;8.910;2023-05-18T01:17:14;8.70;;;4.07;;
15043;SDS011;7619;48.562;8.910;2023-05-18T01:19:54;10.03;;;4.67;;
15043;SDS011;7619;48.562;8.910;2023-05-18T01:22:31;6.43;;;4.17;;
15043;SDS011;7619;48.562;8.910;2023-05-18T01:24:57;8.17;;;4.93;;
15043;SDS011;7619;48.562;8.910;2023-05-18T01:27:25;7.27;;;4.27;;
15043;SDS011;7619;48.562;8.910;2023-05-18T01:29:53;9.70;;;4.20;;
15043;SDS011;7619;48.562;8.910;2023-05-18T01:32:22;6.07;;;4.50;;
15043;SDS011;7619;48.562;8.910;2023-05-18T01:34:50;9.20;;;4.70;;
15043;SDS011;7619;48.562;8.910;2023-05-18T01:37:18;6.47;;;4.53;;
15043;SDS011;7619;48.562;8.910;2023-05-18T01:39:47;4.97;;;4.20;;
15043;SDS011;7619;48.562;8.910;2023-05-18T01:42:17;8.23;;;4.57;;
15043;SDS011;7619;48.562;8.910;2023-05-18T01:44:46;7.93;;;4.80;;
15043;SDS011;7619;48.562;8.910;2023-05-18T01:47:15;6.47;;;4.30;;
15043;SDS011;7619;48.562;8.910;2023-05-18T01:49:47;4.13;;;3.73;;
15043;SDS011;7619;48.562;8.910;2023-05-18T01:52:15;7.90;;;4.20;;
15043;SDS011;7619;48.562;8.910;2023-05-18T01:54:44;7.77;;;4.23;;
15043;SDS011;7619;48.562;8.910;2023-05-18T01:57:13;4.80;;;3.87;;
15043;SDS011;7619;48.562;8.910;2023-05-18T01:59:42;7.10;;;4.30;;
15043;SDS011;7619;48.562;8.910;2023-05-18T02:02:11;8.87;;;4.27;;
15043;SDS011;7619;48.562;8.910;2023-05-18T02:04:40;6.03;;;4.37;;
15043;SDS011;7619;48.562;8.910;2023-05-18T02:07:08;5.87;;;4.60;;
15043;SDS011;7619;48.562;8.910;2023-05-18T02:09:36;6.63;;;4.90;;
15043;SDS011;7619;48.562;8.910;2023-05-18T02:12:05;5.90;;;4.80;;
15043;SDS011;7619;48.562;8.910;2023-05-18T02:14:33;10.93;;;5.00;;
15043;SDS011;7619;48.562;8.910;2023-05-18T02:17:01;5.17;;;4.17;;
15043;SDS011;7619;48.562;8.910;2023-05-18T02:19:29;7.33;;;4.10;;
15043;SDS011;7619;48.562;8.910;2023-05-18T02:21:58;6.07;;;3.83;;
15043;SDS011;7619;48.562;8.910;2023-05-18T02:24:26;8.10;;;4.00;;
15043;SDS011;7619;48.562;8.910;2023-05-18T02:26:54;6.80;;;4.43;;
15043;SDS011;7619;48.562;8.910;2023-05-18T02:29:22;6.00;;;4.80;;
15043;SDS011;7619;48.562;8.910;2023-05-18T02:31:50;6.23;;;3.87;;
15043;SDS011;7619;48.562;8.910;2023-05-18T02:34:19;6.27;;;4.43;;
15043;SDS011;7619;48.562;8.910;2023-05-18T02:36:48;6.57;;;4.20;;
15043;SDS011;7619;48.562;8.910;2023-05-18T02:39:16;6.80;;;4.90;;
15043;SDS011;7619;48.562;8.910;2023-05-18T02:41:45;6.47;;;4.23;;
15043;SDS011;7619;48.562;8.910;2023-05-18T02:44:13;7.37;;;4.10;;
15043;SDS011;7619;48.562;8.910;2023-05-18T02:46:41;7.93;;;4.47;;
15043;SDS011;7619;48.562;8.910;2023-05-18T02:49:09;5.87;;;4.10;;
15043;SDS011;7619;48.562;8.910;2023-05-18T02:51:37;12.40;;;4.90;;
15043;SDS011;7619;48.562;8.910;2023-05-18T02:54:05;9.07;;;4.40;;
15043;SDS011;7619;48.562;8.910;2023-05-18T02:56:33;7.53;;;5.20;;
15043;SDS011;7619;48.562;8.910;2023-05-18T02:59:02;5.97;;;4.33;;
15043;SDS011;7619;48.562;8.910;2023-05-18T03:01:30;7.23;;;4.07;;
15043;SDS011;7619;48.562;8.910;2023-05-18T03:04:00;5.47;;;4.20;;
15043;SDS011;7619;48.562;8.910;2023-05-18T03:06:28;6.50;;;4.50;;
15043;SDS011;7619;48.562;8.910;2023-05-18T03:08:56;5.07;;;4.17;;
15043;SDS011;7619;48.562;8.910;2023-05-18T03:11:25;8.47;;;4.77;;
15043;SDS011;7619;48.562;8.910;2023-05-18T03:13:53;5.00;;;4.30;;
15043;SDS011;7619;48.562;8.910;2023-05-18T03:16:21;6.17;;;4.37;;
15043;SDS011;7619;48.562;8.910;2023-05-18T03:18:51;7.80;;;4.50;;
15043;SDS011;7619;48.562;8.910;2023-05-18T03:21:20;6.77;;;4.20;;
15043;SDS011;7619;48.562;8.910;2023-05-18T03:23:48;6.90;;;4.80;;
15043;SDS011;7619;48.562;8.910;2023-05-18T03:26:19;5.87;;;3.97;;
15043;SDS011;7619;48.562;8.910;2023-05-18T03:28:49;5.47;;;3.90;;
15043;SDS011;7619;48.562;8.910;2023-05-18T03:31:17;9.10;;;4.90;;
15043;SDS011;7619;48.562;8.910;2023-05-18T03:33:45;7.50;;;4.07;;
15043;SDS011;7619;48.562;8.910;2023-05-18T03:36:13;5.00;;;4.10;;
15043;SDS011;7619;48.562;8.910;2023-05-18T03:38:42;7.33;;;4.33;;
15043;SDS011;7619;48.562;8.910;2023-05-18T03:41:11;8.80;;;4.37;;
15043;SDS011;7619;48.562;8.910;2023-05-18T03:43:39;5.30;;;3.87;;
15043;SDS011;7619;48.562;8.910;2023-05-18T03:46:08;7.13;;;4.73;;
15043;SDS011;7619;48.562;8.910;2023-05-18T03:48:36;8.10;;;4.73;;
15043;SDS011;7619;48.562;8.910;2023-05-18T03:51:04;11.93;;;4.30;;
15043;SDS011;7619;48.562;8.910;2023-05-18T03:53:32;6.70;;;4.87;;
15043;SDS011;7619;48.562;8.910;2023-05-18T03:56:02;5.93;;;4.47;;
15043;SDS011;7619;48.562;8.910;2023-05-18T03:58:30;9.60;;;4.47;;
15043;SDS011;7619;48.562;8.910;2023-05-18T04:00:58;5.63;;;4.67;;
15043;SDS011;7619;48.562;8.910;2023-05-18T04:03:26;6.97;;;4.87;;
15043;SDS011;7619;48.562;8.910;2023-05-18T04:05:56;5.13;;;4.37;;
15043;SDS011;7619;48.562;8.910;2023-05-18T04:08:24;9.17;;;4.57;;
15043;SDS011;7619;48.562;8.910;2023-05-18T04:10:52;6.93;;;4.80;;
15043;SDS011;7619;48.562;8.910;2023-05-18T04:13:20;8.93;;;5.20;;
15043;SDS011;7619;48.562;8.910;2023-05-18T04:15:48;6.07;;;4.50;;
15043;SDS011;7619;48.562;8.910;2023-05-18T04:18:17;6.07;;;4.93;;
15043;SDS011;7619;48.562;8.910;2023-05-18T04:20:45;6.70;;;4.63;;
15043;SDS011;7619;48.562;8.910;2023-05-18T04:23:13;7.07;;;4.93;;
15043;SDS011;7619;48.562;8.910;2023-05-18T04:25:42;7.27;;;5.10;;
15043;SDS011;7619;48.562;8.910;2023-05-18T04:28:10;6.13;;;5.07;;
15043;SDS011;7619;48.562;8.910;2023-05-18T04:30:39;11.23;;;5.03;;
15043;SDS011;7619;48.562;8.910;2023-05-18T04:33:07;8.90;;;6.10;;
15043;SDS011;7619;48.562;8.910;2023-05-18T04:35:36;8.63;;;5.07;;
15043;SDS011;7619;48.562;8.910;2023-05-18T04:38:04;10.50;;;5.03;;
15043;SDS011;7619;48.562;8.910;2023-05-18T04:40:32;7.80;;;4.67;;
15043;SDS011;7619;48.562;8.910;2023-05-18T04:43:02;7.00;;;4.57;;
15043;SDS011;7619;48.562;8.910;2023-05-18T04:45:31;9.47;;;4.20;;
15043;SDS011;7619;48.562;8.910;2023-05-18T04:47:59;7.83;;;4.27;;
15043;SDS011;7619;48.562;8.910;2023-05-18T04:53:04;5.87;;;3.83;;
15043;SDS011;7619;48.562;8.910;2023-05-18T04:55:34;6.20;;;4.60;;
15043;SDS011;7619;48.562;8.910;2023-05-18T04:58:02;7.27;;;4.27;;
15043;SDS011;7619;48.562;8.910;2023-05-18T05:00:31;5.20;;;3.77;;
15043;SDS011;7619;48.562;8.910;2023-05-18T05:03:00;8.23;;;3.97;;
15043;SDS011;7619;48.562;8.910;2023-05-18T05:05:28;5.97;;;3.03;;
15043;SDS011;7619;48.562;8.910;2023-05-18T05:07:56;5.53;;;3.23;;
15043;SDS011;7619;48.562;8.910;2023-05-18T05:10:24;6.23;;;3.57;;
15043;SDS011;7619;48.562;8.910;2023-05-18T05:12:53;5.90;;;3.33;;
15043;SDS011;7619;48.562;8.910;2023-05-18T05:15:21;8.33;;;3.27;;
15043;SDS011;7619;48.562;8.910;2023-05-18T05:17:49;6.97;;;3.20;;
15043;SDS011;7619;48.562;8.910;2023-05-18T05:20:17;6.27;;;3.17;;
15043;SDS011;7619;48.562;8.910;2023-05-18T05:22:45;4.10;;;3.13;;
15043;SDS011;7619;48.562;8.910;2023-05-18T05:25:13;5.87;;;3.43;;
15043;SDS011;7619;48.562;8.910;2023-05-18T05:27:42;7.17;;;3.37;;
15043;SDS011;7619;48.562;8.910;2023-05-18T05:30:10;4.80;;;3.50;;
15043;SDS011;7619;48.562;8.910;2023-05-18T05:32:38;4.53;;;3.47;;
15043;SDS011;7619;48.562;8.910;2023-05-18T05:35:07;8.83;;;3.30;;
15043;SDS011;7619;48.562;8.910;2023-05-18T05:37:35;5.70;;;3.47;;
15043;SDS011;7619;48.562;8.910;2023-05-18T05:40:03;4.00;;;3.03;;
15043;SDS011;7619;48.562;8.910;2023-05-18T05:42:32;5.10;;;2.77;;
15043;SDS011;7619;48.562;8.910;2023-05-18T05:45:00;5.30;;;3.53;;
15043;SDS011;7619;48.562;8.910;2023-05-18T05:47:28;5.40;;;3.20;;
15043;SDS011;7619;48.562;8.910;2023-05-18T05:49:56;3.20;;;2.50;;
15043;SDS011;7619;48.562;8.910;2023-05-18T05:52:24;8.73;;;3.10;;
15043;SDS011;7619;48.562;8.910;2023-05-18T05:54:54;5.20;;;2.73;;
15043;SDS011;7619;48.562;8.910;2023-05-18T05:57:22;7.77;;;2.60;;
15043;SDS011;7619;48.562;8.910;2023-05-18T05:59:50;4.00;;;2.30;;
15043;SDS011;7619;48.562;8.910;2023-05-18T06:02:18;3.93;;;2.73;;
15043;SDS011;7619;48.562;8.910;2023-05-18T06:04:47;5.60;;;2.90;;
15043;SDS011;7619;48.562;8.910;2023-05-18T06:07:15;7.77;;;2.87;;
15043;SDS011;7619;48.562;8.910;2023-05-18T06:09:43;6.73;;;2.23;;
15043;SDS011;7619;48.562;8.910;2023-05-18T06:12:11;6.10;;;3.10;;
15043;SDS011;7619;48.562;8.910;2023-05-18T06:14:40;4.13;;;2.63;;
15043;SDS011;7619;48.562;8.910;2023-05-18T06:17:08;6.10;;;3.00;;
15043;SDS011;7619;48.562;8.910;2023-05-18T06:19:36;6.80;;;2.60;;
15043;SDS011;7619;48.562;8.910;2023-05-18T06:22:04;3.23;;;2.43;;
15043;SDS011;7619;48.562;8.910;2023-05-18T06:24:32;6.40;;;2.63;;
15043;SDS011;7619;48.562;8.910;2023-05-18T06:27:00;5.90;;;1.90;;
15043;SDS011;7619;48.562;8.910;2023-05-18T06:29:28;4.73;;;2.30;;
15043;SDS011;7619;48.562;8.910;2023-05-18T06:31:57;7.10;;;2.50;;
15043;SDS011;7619;48.562;8.910;2023-05-18T06:34:25;5.20;;;2.40;;
15043;SDS011;7619;48.562;8.910;2023-05-18T06:36:53;5.40;;;2.87;;
15043;SDS011;7619;48.562;8.910;2023-05-18T06:39:21;6.17;;;2.70;;
15043;SDS011;7619;48.562;8.910;2023-05-18T06:41:49;8.23;;;3.13;;
15043;SDS011;7619;48.562;8.910;2023-05-18T06:44:17;6.03;;;3.60;;
15043;SDS011;7619;48.562;8.910;2023-05-18T06:46:46;5.73;;;2.40;;
15043;SDS011;7619;48.562;8.910;2023-05-18T06:49:15;5.87;;;2.47;;
15043;SDS011;7619;48.562;8.910;2023-05-18T06:51:43;5.70;;;2.67;;
15043;SDS011;7619;48.562;8.910;2023-05-18T06:54:11;6.13;;;2.73;;
15043;SDS011;7619;48.562;8.910;2023-05-18T06:56:39;10.03;;;2.63;;
15043;SDS011;7619;48.562;8.910;2023-05-18T06:59:07;5.23;;;2.63;;
15043;SDS011;7619;48.562;8.910;2023-05-18T07:01:35;8.27;;;2.70;;
15043;SDS011;7619;48.562;8.910;2023-05-18T07:04:03;4.43;;;2.47;;
15043;SDS011;7619;48.562;8.910;2023-05-18T07:06:32;7.47;;;2.63;;
15043;SDS011;7619;48.562;8.910;2023-05-18T07:09:00;7.37;;;2.60;;
15043;SDS011;7619;48.562;8.910;2023-05-18T07:11:28;3.93;;;2.53;;
15043;SDS011;7619;48.562;8.910;2023-05-18T07:13:57;6.37;;;2.97;;
15043;SDS011;7619;48.562;8.910;2023-05-18T07:16:25;5.00;;;2.33;;
15043;SDS011;7619;48.562;8.910;2023-05-18T07:18:55;6.00;;;3.07;;
15043;SDS011;7619;48.562;8.910;2023-05-18T07:21:24;5.60;;;2.37;;
15043;SDS011;7619;48.562;8.910;2023-05-18T07:23:52;6.40;;;2.40;;
15043;SDS011;7619;48.562;8.910;2023-05-18T07:26:20;3.07;;;2.23;;
15043;SDS011;7619;48.562;8.910;2023-05-18T07:28:48;3.93;;;2.87;;
15043;SDS011;7619;48.562;8.910;2023-05-18T07:31:17;7.97;;;2.60;;
15043;SDS011;7619;48.562;8.910;2023-05-18T07:33:47;4.70;;;2.67;;
15043;SDS011;7619;48.562;8.910;2023-05-18T07:36:15;6.17;;;2.83;;
15043;SDS011;7619;48.562;8.910;2023-05-18T07:38:43;3.97;;;2.67;;
15043;SDS011;7619;48.562;8.910;2023-05-18T07:41:11;3.73;;;2.23;;
15043;SDS011;7619;48.562;8.910;2023-05-18T07:43:39;6.97;;;2.60;;
15043;SDS011;7619;48.562;8.910;2023-05-18T07:46:07;4.43;;;2.63;;
15043;SDS011;7619;48.562;8.910;2023-05-18T07:48:35;4.90;;;2.67;;
15043;SDS011;7619;48.562;8.910;2023-05-18T07:51:04;6.07;;;2.87;;
15043;SDS011;7619;48.562;8.910;2023-05-18T07:53:32;4.97;;;2.67;;
15043;SDS011;7619;48.562;8.910;2023-05-18T07:56:00;5.40;;;2.60;;
15043;SDS011;7619;48.562;8.910;2023-05-18T07:58:28;7.63;;;2.73;;
15043;SDS011;7619;48.562;8.910;2023-05-18T08:00:56;5.63;;;2.60;;
15043;SDS011;7619;48.562;8.910;2023-05-18T08:03:24;5.30;;;2.40;;
15043;SDS011;7619;48.562;8.910;2023-05-18T08:05:52;6.03;;;3.17;;
15043;SDS011;7619;48.562;8.910;2023-05-18T08:08:20;2.70;;;2.07;;
15043;SDS011;7619;48.562;8.910;2023-05-18T08:10:49;4.37;;;2.40;;
15043;SDS011;7619;48.562;8.910;2023-05-18T08:13:17;6.47;;;2.60;;
15043;SDS011;7619;48.562;8.910;2023-05-18T08:15:45;9.63;;;2.97;;
15043;SDS011;7619;48.562;8.910;2023-05-18T08:18:14;4.60;;;2.70;;
15043;SDS011;7619;48.562;8.910;2023-05-18T08:20:42;5.17;;;3.07;;
15043;SDS011;7619;48.562;8.910;2023-05-18T08:23:10;6.60;;;3.03;;
15043;SDS011;7619;48.562;8.910;2023-05-18T08:25:38;6.00;;;2.93;;
15043;SDS011;7619;48.562;8.910;2023-05-18T08:28:06;6.93;;;3.17;;
15043;SDS011;7619;48.562;8.910;2023-05-18T08:30:34;4.33;;;2.63;;
15043;SDS011;7619;48.562;8.910;2023-05-18T08:33:02;4.73;;;2.70;;
15043;SDS011;7619;48.562;8.910;2023-05-18T08:35:30;6.30;;;2.97;;
15043;SDS011;7619;48.562;8.910;2023-05-18T08:37:59;5.77;;;2.60;;
15043;SDS011;7619;48.562;8.910;2023-05-18T08:40:31;4.20;;;2.47;;
15043;SDS011;7619;48.562;8.910;2023-05-18T08:43:01;5.40;;;2.57;;
15043;SDS011;7619;48.562;8.910;2023-05-18T08:45:29;4.33;;;2.67;;
15043;SDS011;7619;48.562;8.910;2023-05-18T08:47:56;6.33;;;2.50;;
15043;SDS011;7619;48.562;8.910;2023-05-18T08:50:26;4.30;;;2.47;;
15043;SDS011;7619;48.562;8.910;2023-05-18T08:52:55;5.60;;;3.10;;
15043;SDS011;7619;48.562;8.910;2023-05-18T08:55:25;6.00;;;3.13;;
15043;SDS011;7619;48.562;8.910;2023-05-18T08:57:54;6.10;;;2.67;;
15043;SDS011;7619;48.562;8.910;2023-05-18T09:00:25;6.17;;;3.17;;
15043;SDS011;7619;48.562;8.910;2023-05-18T09:02:53;6.13;;;2.23;;
15043;SDS011;7619;48.562;8.910;2023-05-18T09:05:22;4.37;;;2.50;;
15043;SDS011;7619;48.562;8.910;2023-05-18T09:07:50;4.30;;;2.73;;
15043;SDS011;7619;48.562;8.910;2023-05-18T09:10:18;6.77;;;2.47;;
15043;SDS011;7619;48.562;8.910;2023-05-18T09:12:47;6.27;;;2.60;;
15043;SDS011;7619;48.562;8.910;2023-05-18T09:15:15;6.47;;;2.63;;
15043;SDS011;7619;48.562;8.910;2023-05-18T09:17:43;4.63;;;2.70;;
15043;SDS011;7619;48.562;8.910;2023-05-18T09:20:11;4.77;;;2.50;;
15043;SDS011;7619;48.562;8.910;2023-05-18T09:22:40;3.57;;;2.40;;
15043;SDS011;7619;48.562;8.910;2023-05-18T09:25:08;5.60;;;2.00;;
15043;SDS011;7619;48.562;8.910;2023-05-18T09:27:36;7.00;;;2.93;;
15043;SDS011;7619;48.562;8.910;2023-05-18T09:30:08;5.57;;;3.53;;
15043;SDS011;7619;48.562;8.910;2023-05-18T09:32:35;4.70;;;2.80;;
15043;SDS011;7619;48.562;8.910;2023-05-18T09:35:04;5.27;;;3.10;;
15043;SDS011;7619;48.562;8.910;2023-05-18T09:37:32;5.63;;;2.60;;
15043;SDS011;7619;48.562;8.910;2023-05-18T09:40:01;4.17;;;2.67;;
15043;SDS011;7619;48.562;8.910;2023-05-18T09:42:36;8.30;;;2.90;;
15043;SDS011;7619;48.562;8.910;2023-05-18T09:45:06;4.77;;;3.03;;
15043;SDS011;7619;48.562;8.910;2023-05-18T09:47:35;8.77;;;2.70;;
15043;SDS011;7619;48.562;8.910;2023-05-18T09:50:04;4.40;;;3.00;;
15043;SDS011;7619;48.562;8.910;2023-05-18T09:52:33;4.77;;;2.93;;
15043;SDS011;7619;48.562;8.910;2023-05-18T09:55:03;8.27;;;2.73;;
15043;SDS011;7619;48.562;8.910;2023-05-18T09:57:31;7.93;;;3.00;;
15043;SDS011;7619;48.562;8.910;2023-05-18T10:00:03;4.87;;;2.53;;
15043;SDS011;7619;48.562;8.910;2023-05-18T10:02:36;5.87;;;2.40;;
15043;SDS011;7619;48.562;8.910;2023-05-18T10:05:03;7.63;;;3.07;;
15043;SDS011;7619;48.562;8.910;2023-05-18T10:07:31;6.63;;;2.77;;
15043;SDS011;7619;48.562;8.910;2023-05-18T10:10:01;7.77;;;3.40;;
15043;SDS011;7619;48.562;8.910;2023-05-18T10:12:30;6.53;;;2.90;;
15043;SDS011;7619;48.562;8.910;2023-05-18T10:14:58;5.40;;;2.30;;
15043;SDS011;7619;48.562;8.910;2023-05-18T10:17:26;3.77;;;2.67;;
15043;SDS011;7619;48.562;8.910;2023-05-18T10:19:54;7.07;;;2.97;;
15043;SDS011;7619;48.562;8.910;2023-05-18T10:22:24;2.93;;;2.27;;
15043;SDS011;7619;48.562;8.910;2023-05-18T10:24:52;5.67;;;3.17;;
15043;SDS011;7619;48.562;8.910;2023-05-18T10:27:22;4.83;;;2.40;;
15043;SDS011;7619;48.562;8.910;2023-05-18T10:29:50;6.03;;;2.90;;
15043;SDS011;7619;48.562;8.910;2023-05-18T10:32:20;7.67;;;3.27;;
15043;SDS011;7619;48.562;8.910;2023-05-18T10:34:51;6.50;;;2.80;;
15043;SDS011;7619;48.562;8.910;2023-05-18T10:37:22;4.73;;;2.47;;
15043;SDS011;7619;48.562;8.910;2023-05-18T10:39:50;3.77;;;2.13;;
15043;SDS011;7619;48.562;8.910;2023-05-18T10:42:18;8.57;;;3.00;;
15043;SDS011;7619;48.562;8.910;2023-05-18T10:44:47;3.77;;;2.47;;
15043;SDS011;7619;48.562;8.910;2023-05-18T10:47:17;4.27;;;2.60;;
15043;SDS011;7619;48.562;8.910;2023-05-18T10:49:46;5.20;;;2.33;;
15043;SDS011;7619;48.562;8.910;2023-05-18T10:52:16;5.47;;;2.20;;
15043;SDS011;7619;48.562;8.910;2023-05-18T10:54:44;5.37;;;2.47;;
15043;SDS011;7619;48.562;8.910;2023-05-18T10:57:13;4.57;;;2.77;;
15043;SDS011;7619;48.562;8.910;2023-05-18T10:59:42;6.40;;;2.90;;
15043;SDS011;7619;48.562;8.910;2023-05-18T11:02:11;5.60;;;2.57;;
15043;SDS011;7619;48.562;8.910;2023-05-18T11:04:39;5.57;;;2.37;;
15043;SDS011;7619;48.562;8.910;2023-05-18T11:07:09;7.23;;;2.33;;
15043;SDS011;7619;48.562;8.910;2023-05-18T11:09:40;5.80;;;2.47;;
15043;SDS011;7619;48.562;8.910;2023-05-18T11:12:12;6.87;;;2.47;;
15043;SDS011;7619;48.562;8.910;2023-05-18T11:14:46;9.50;;;2.87;;
15043;SDS011;7619;48.562;8.910;2023-05-18T11:17:16;5.50;;;2.20;;
15043;SDS011;7619;48.562;8.910;2023-05-18T11:25:37;4.27;;;2.13;;
15043;SDS011;7619;48.562;8.910;2023-05-18T11:28:06;4.53;;;1.90;;
15043;SDS011;7619;48.562;8.910;2023-05-18T11:30:45;3.27;;;2.13;;
15043;SDS011;7619;48.562;8.910;2023-05-18T11:33:14;5.87;;;2.70;;
15043;SDS011;7619;48.562;8.910;2023-05-18T11:35:53;7.67;;;3.00;;
15043;SDS011;7619;48.562;8.910;2023-05-18T11:38:21;6.50;;;3.00;;
15043;SDS011;7619;48.562;8.910;2023-05-18T11:40:49;8.27;;;3.40;;
15043;SDS011;7619;48.562;8.910;2023-05-18T11:43:19;5.23;;;2.47;;
15043;SDS011;7619;48.562;8.910;2023-05-18T11:45:53;6.47;;;2.50;;
15043;SDS011;7619;48.562;8.910;2023-05-18T11:48:22;9.00;;;3.87;;
15043;SDS011;7619;48.562;8.910;2023-05-18T11:50:52;6.70;;;3.77;;
15043;SDS011;7619;48.562;8.910;2023-05-18T11:53:21;4.83;;;2.47;;
15043;SDS011;7619;48.562;8.910;2023-05-18T11:55:51;8.80;;;3.93;;
15043;SDS011;7619;48.562;8.910;2023-05-18T11:58:20;6.13;;;2.30;;
15043;SDS011;7619;48.562;8.910;2023-05-18T12:00:49;4.00;;;2.67;;
15043;SDS011;7619;48.562;8.910;2023-05-18T12:03:18;4.87;;;2.00;;
15043;SDS011;7619;48.562;8.910;2023-05-18T12:05:48;5.37;;;2.40;;
15043;SDS011;7619;48.562;8.910;2023-05-18T12:08:17;4.73;;;2.07;;
15043;SDS011;7619;48.562;8.910;2023-05-18T12:10:45;6.90;;;3.03;;
15043;SDS011;7619;48.562;8.910;2023-05-18T12:13:14;3.80;;;2.33;;
15043;SDS011;7619;48.562;8.910;2023-05-18T12:15:43;8.57;;;3.10;;
15043;SDS011;7619;48.562;8.910;2023-05-18T12:18:11;3.10;;;1.70;;
15043;SDS011;7619;48.562;8.910;2023-05-18T12:20:39;5.10;;;2.43;;
15043;SDS011;7619;48.562;8.910;2023-05-18T12:23:14;4.90;;;2.90;;
15043;SDS011;7619;48.562;8.910;2023-05-18T12:25:39;4.53;;;2.40;;
15043;SDS011;7619;48.562;8.910;2023-05-18T12:28:08;6.07;;;2.07;;
15043;SDS011;7619;48.562;8.910;2023-05-18T12:30:36;4.30;;;1.80;;
15043;SDS011;7619;48.562;8.910;2023-05-18T12:33:05;6.23;;;2.03;;
15043;SDS011;7619;48.562;8.910;2023-05-18T12:35:33;4.40;;;2.07;;
15043;SDS011;7619;48.562;8.910;2023-05-18T12:38:01;3.40;;;1.87;;
15043;SDS011;7619;48.562;8.910;2023-05-18T12:40:34;5.37;;;2.13;;
15043;SDS011;7619;48.562;8.910;2023-05-18T12:43:05;3.13;;;1.97;;
15043;SDS011;7619;48.562;8.910;2023-05-18T12:45:33;3.10;;;1.73;;
15043;SDS011;7619;48.562;8.910;2023-05-18T12:48:04;3.27;;;1.87;;
15043;SDS011;7619;48.562;8.910;2023-05-18T12:50:32;6.50;;;2.00;;
15043;SDS011;7619;48.562;8.910;2023-05-18T12:53:02;2.70;;;1.80;;
15043;SDS011;7619;48.562;8.910;2023-05-18T12:55:31;5.50;;;1.90;;
15043;SDS011;7619;48.562;8.910;2023-05-18T12:57:59;4.07;;;1.50;;
15043;SDS011;7619;48.562;8.910;2023-05-18T13:00:31;2.33;;;1.80;;
15043;SDS011;7619;48.562;8.910;2023-05-18T13:03:04;4.77;;;2.00;;
15043;SDS011;7619;48.562;8.910;2023-05-18T13:05:32;4.00;;;2.23;;
15043;SDS011;7619;48.562;8.910;2023-05-18T13:08:00;6.33;;;1.97;;
15043;SDS011;7619;48.562;8.910;2023-05-18T13:10:29;3.33;;;2.10;;
15043;SDS011;7619;48.562;8.910;2023-05-18T13:12:57;5.30;;;1.47;;
15043;SDS011;7619;48.562;8.910;2023-05-18T13:15:31;5.07;;;1.90;;
15043;SDS011;7619;48.562;8.910;2023-05-18T13:17:58;4.77;;;2.30;;
15043;SDS011;7619;48.562;8.910;2023-05-18T13:20:30;4.33;;;2.03;;
15043;SDS011;7619;48.562;8.910;2023-05-18T13:22:59;4.30;;;2.10;;
15043;SDS011;7619;48.562;8.910;2023-05-18T13:25:29;4.47;;;1.93;;
15043;SDS011;7619;48.562;8.910;2023-05-18T13:27:58;3.53;;;1.70;;
15043;SDS011;7619;48.562;8.910;2023-05-18T13:30:26;7.20;;;2.50;;
15043;SDS011;7619;48.562;8.910;2023-05-18T13:32:54;3.73;;;1.60;;
15043;SDS011;7619;48.562;8.910;2023-05-18T13:35:23;4.57;;;1.97;;
15043;SDS011;7619;48.562;8.910;2023-05-18T13:37:51;5.83;;;2.07;;
15043;SDS011;7619;48.562;8.910;2023-05-18T13:40:22;6.67;;;1.83;;
15043;SDS011;7619;48.562;8.910;2023-05-18T13:42:52;3.27;;;1.70;;
15043;SDS011;7619;48.562;8.910;2023-05-18T13:45:25;4.47;;;1.90;;
15043;SDS011;7619;48.562;8.910;2023-05-18T13:47:53;5.20;;;2.23;;
15043;SDS011;7619;48.562;8.910;2023-05-18T13:50:22;7.83;;;2.70;;
15043;SDS011;7619;48.562;8.910;2023-05-18T13:52:51;3.47;;;1.97;;
15043;SDS011;7619;48.562;8.910;2023-05-18T13:55:20;4.53;;;2.23;;
15043;SDS011;7619;48.562;8.910;2023-05-18T13:57:48;3.77;;;1.80;;
15043;SDS011;7619;48.562;8.910;2023-05-18T14:00:17;3.70;;;2.10;;
15043;SDS011;7619;48.562;8.910;2023-05-18T14:02:46;4.33;;;2.33;;
15043;SDS011;7619;48.562;8.910;2023-05-18T14:05:14;5.20;;;1.87;;
15043;SDS011;7619;48.562;8.910;2023-05-18T14:07:42;4.03;;;1.70;;
15043;SDS011;7619;48.562;8.910;2023-05-18T14:10:11;6.00;;;1.90;;
15043;SDS011;7619;48.562;8.910;2023-05-18T14:12:39;4.43;;;1.50;;
15043;SDS011;7619;48.562;8.910;2023-05-18T14:15:09;3.63;;;1.90;;
15043;SDS011;7619;48.562;8.910;2023-05-18T14:17:39;4.20;;;2.17;;
15043;SDS011;7619;48.562;8.910;2023-05-18T14:20:08;4.40;;;2.03;;
15043;SDS011;7619;48.562;8.910;2023-05-18T14:22:37;3.63;;;1.40;;
15043;SDS011;7619;48.562;8.910;2023-05-18T14:25:05;6.43;;;2.10;;
15043;SDS011;7619;48.562;8.910;2023-05-18T14:27:33;3.60;;;2.13;;
15043;SDS011;7619;48.562;8.910;2023-05-18T14:30:02;2.83;;;1.80;;
15043;SDS011;7619;48.562;8.910;2023-05-18T14:32:31;7.03;;;1.80;;
15043;SDS011;7619;48.562;8.910;2023-05-18T14:35:00;3.17;;;2.00;;
15043;SDS011;7619;48.562;8.910;2023-05-18T14:37:28;3.03;;;1.60;;
15043;SDS011;7619;48.562;8.910;2023-05-18T14:39:56;6.17;;;1.80;;
15043;SDS011;7619;48.562;8.910;2023-05-18T14:42:24;4.37;;;2.20;;
15043;SDS011;7619;48.562;8.910;2023-05-18T14:44:52;5.83;;;1.90;;
15043;SDS011;7619;48.562;8.910;2023-05-18T14:47:20;4.23;;;1.83;;
15043;SDS011;7619;48.562;8.910;2023-05-18T14:49:48;2.73;;;1.60;;
15043;SDS011;7619;48.562;8.910;2023-05-18T14:52:17;4.80;;;1.93;;
15043;SDS011;7619;48.562;8.910;2023-05-18T14:54:45;5.43;;;1.60;;
15043;SDS011;7619;48.562;8.910;2023-05-18T14:57:13;9.13;;;2.60;;
15043;SDS011;7619;48.562;8.910;2023-05-18T14:59:42;3.30;;;1.53;;
15043;SDS011;7619;48.562;8.910;2023-05-18T15:02:10;3.80;;;1.47;;
15043;SDS011;7619;48.562;8.910;2023-05-18T15:04:38;4.67;;;1.60;;
15043;SDS011;7619;48.562;8.910;2023-05-18T15:07:06;5.00;;;1.90;;
15043;SDS011;7619;48.562;8.910;2023-05-18T15:09:34;6.10;;;1.87;;
15043;SDS011;7619;48.562;8.910;2023-05-18T15:12:02;2.80;;;1.77;;
15043;SDS011;7619;48.562;8.910;2023-05-18T15:14:30;4.30;;;1.93;;
15043;SDS011;7619;48.562;8.910;2023-05-18T15:16:58;3.53;;;1.80;;